メインページ
METAR-TAF:

METAR-TAF

空港 :

マニラ, フィリピン

ニノイ・アキノ国際空港

緯度: 14-31N, 経度: 121-00E, 海抜: 14m

現時点の気象観測

当レポートは16分前の12:00(UTC)に作成
北東の風 7kt、北/北東からの間で変化する
気温 28°C
湿度 66%
気圧 1014 hPa
視程10km以上
高度2500ftの雲はほとんどない
高度10000ftの雲は散在している

METAR: RPLL 241200Z 05007KT 020V080 9999 FEW025 SCT100 28/21 Q1014 NOSIG RMK A2994 METAR

時間: 20:16 (12:16 UTC)

予報

当レポートは1時間16分前の11:00(UTC)に作成
予報は24日の 12時(UTC)から 25日の 18時(UTC)まで有効
東/北東の風 8kt
視程10km以上
高度2500ftの雲はほとんどない
24日の 12時(UTC)から 24日の 18時(UTC)まで一時的に
東/北東の風 8kt
高度2300ftの雲はほとんどない
高度10000ftの雲は散在している
24日の 18時(UTC)から 24日の 24時(UTC)まで一時的に
北東の風 4kt
高度2300ftの雲はほとんどない

TAF: RPLL 241100Z 2412/2518 06008KT 9999 FEW025 TX33/2506Z TN24/2422Z TEMPO 2412/2418 07008KT FEW023 SCT100 TEMPO 2418/2424 05004KT FEW023

4,000以上の空港の気象観測と天気予報(METAR報とTAF報)

利用可能な観測所は地図上に黄色い丸と赤い丸で示す。

丸の上にカーソルを重ねると観測所名を参照できる。

次にクリックすると気象観測と天気予報を参照できる。

マップの切り替え:黒色「×」印の緑ボタンをクリックして拡大、「-」印の緑ボタンをクリックして縮小、緑色の三角印をクリックして隣りの地図に切り替え


METAR-TAF: